sensor_id;sensor_type;location;lat;lon;timestamp;P1;P4;P2;P0;N10;N4;N25;N1;N05;TS
79466;SPS30;68933;49.726;9.226;2023-04-03T00:00:02;2.7;;2.7;2.6;;;;;;
79466;SPS30;68933;49.726;9.226;2023-04-03T00:02:15;2.7;;2.7;2.6;;;;;;
79466;SPS30;68933;49.726;9.226;2023-04-03T00:04:28;2.7;;2.7;2.6;;;;;;
79466;SPS30;68933;49.726;9.226;2023-04-03T00:06:41;2.7;;2.7;2.6;;;;;;
79466;SPS30;68933;49.726;9.226;2023-04-03T00:08:54;2.7;;2.7;2.6;;;;;;
79466;SPS30;68933;49.726;9.226;2023-04-03T00:11:07;2.9;;2.9;2.7;;;;;;
79466;SPS30;68933;49.726;9.226;2023-04-03T00:13:20;2.9;;2.9;2.7;;;;;;
79466;SPS30;68933;49.726;9.226;2023-04-03T00:15:33;2.8;;2.8;2.6;;;;;;
79466;SPS30;68933;49.726;9.226;2023-04-03T00:17:46;2.8;;2.8;2.6;;;;;;
79466;SPS30;68933;49.726;9.226;2023-04-03T00:19:59;2.8;;2.8;2.6;;;;;;
79466;SPS30;68933;49.726;9.226;2023-04-03T00:22:12;2.6;;2.6;2.5;;;;;;
79466;SPS30;68933;49.726;9.226;2023-04-03T00:24:25;2.6;;2.6;2.5;;;;;;
79466;SPS30;68933;49.726;9.226;2023-04-03T00:26:38;3.3;;3.3;3.2;;;;;;
79466;SPS30;68933;49.726;9.226;2023-04-03T00:28:51;3.3;;3.3;3.2;;;;;;
79466;SPS30;68933;49.726;9.226;2023-04-03T00:31:04;3.3;;3.3;3.2;;;;;;
79466;SPS30;68933;49.726;9.226;2023-04-03T00:33:17;2.9;;2.9;2.8;;;;;;
79466;SPS30;68933;49.726;9.226;2023-04-03T00:35:30;2.9;;2.9;2.8;;;;;;
79466;SPS30;68933;49.726;9.226;2023-04-03T00:37:43;3;;3;2.9;;;;;;
79466;SPS30;68933;49.726;9.226;2023-04-03T00:39:56;3;;3;2.9;;;;;;
79466;SPS30;68933;49.726;9.226;2023-04-03T00:42:09;3;;3;2.8;;;;;;
79466;SPS30;68933;49.726;9.226;2023-04-03T00:44:23;3;;3;2.8;;;;;;
79466;SPS30;68933;49.726;9.226;2023-04-03T00:46:35;3;;3;2.8;;;;;;
79466;SPS30;68933;49.726;9.226;2023-04-03T00:48:48;2.9;;2.9;2.8;;;;;;
79466;SPS30;68933;49.726;9.226;2023-04-03T00:51:01;2.9;;2.9;2.8;;;;;;
79466;SPS30;68933;49.726;9.226;2023-04-03T00:53:15;3;;3;2.8;;;;;;
79466;SPS30;68933;49.726;9.226;2023-04-03T00:55:27;3;;3;2.8;;;;;;
79466;SPS30;68933;49.726;9.226;2023-04-03T00:57:40;3;;3;2.8;;;;;;
79466;SPS30;68933;49.726;9.226;2023-04-03T00:59:54;2.5;;2.5;2.4;;;;;;
79466;SPS30;68933;49.726;9.226;2023-04-03T01:02:06;2.5;;2.5;2.4;;;;;;
79466;SPS30;68933;49.726;9.226;2023-04-03T01:04:26;3.4;;3.4;3.2;;;;;;
79466;SPS30;68933;49.726;9.226;2023-04-03T01:06:33;3.4;;3.4;3.2;;;;;;
79466;SPS30;68933;49.726;9.226;2023-04-03T01:08:45;3.6;;3.6;3.4;;;;;;
79466;SPS30;68933;49.726;9.226;2023-04-03T01:10:58;3.6;;3.6;3.4;;;;;;
79466;SPS30;68933;49.726;9.226;2023-04-03T01:13:19;3.6;;3.6;3.4;;;;;;
79466;SPS30;68933;49.726;9.226;2023-04-03T01:15:24;3.1;;3.1;3;;;;;;
79466;SPS30;68933;49.726;9.226;2023-04-03T01:17:38;3.1;;3.1;3;;;;;;
79466;SPS30;68933;49.726;9.226;2023-04-03T01:19:51;2.8;;2.8;2.7;;;;;;
79466;SPS30;68933;49.726;9.226;2023-04-03T01:22:05;2.8;;2.8;2.7;;;;;;
79466;SPS30;68933;49.726;9.226;2023-04-03T01:24:32;2.5;;2.5;2.4;;;;;;
79466;SPS30;68933;49.726;9.226;2023-04-03T01:26:29;2.5;;2.5;2.4;;;;;;
79466;SPS30;68933;49.726;9.226;2023-04-03T01:28:42;2.5;;2.5;2.4;;;;;;
79466;SPS30;68933;49.726;9.226;2023-04-03T01:30:56;3.2;;3.2;3;;;;;;
79466;SPS30;68933;49.726;9.226;2023-04-03T01:33:08;3.2;;3.2;3;;;;;;
79466;SPS30;68933;49.726;9.226;2023-04-03T01:35:21;3.1;;3.1;3;;;;;;
79466;SPS30;68933;49.726;9.226;2023-04-03T01:37:34;3.1;;3.1;3;;;;;;
79466;SPS30;68933;49.726;9.226;2023-04-03T01:39:47;2.8;;2.8;2.7;;;;;;
79466;SPS30;68933;49.726;9.226;2023-04-03T01:42:00;2.8;;2.8;2.7;;;;;;
79466;SPS30;68933;49.726;9.226;2023-04-03T01:44:13;3.6;;3.6;3.5;;;;;;
79466;SPS30;68933;49.726;9.226;2023-04-03T01:46:26;3.6;;3.6;3.5;;;;;;
79466;SPS30;68933;49.726;9.226;2023-04-03T01:48:39;3.6;;3.6;3.5;;;;;;
79466;SPS30;68933;49.726;9.226;2023-04-03T01:50:52;3.6;;3.6;3.4;;;;;;
79466;SPS30;68933;49.726;9.226;2023-04-03T01:53:05;3.6;;3.6;3.4;;;;;;
79466;SPS30;68933;49.726;9.226;2023-04-03T01:55:18;3.1;;3.1;2.9;;;;;;
79466;SPS30;68933;49.726;9.226;2023-04-03T01:57:31;3.1;;3.1;2.9;;;;;;
79466;SPS30;68933;49.726;9.226;2023-04-03T01:59:44;7.1;;7.1;6.7;;;;;;
79466;SPS30;68933;49.726;9.226;2023-04-03T02:01:57;7.1;;7.1;6.7;;;;;;
79466;SPS30;68933;49.726;9.226;2023-04-03T02:04:10;7.1;;7.1;6.7;;;;;;
79466;SPS30;68933;49.726;9.226;2023-04-03T02:06:23;5.5;;5.5;5.3;;;;;;
79466;SPS30;68933;49.726;9.226;2023-04-03T02:08:36;5.5;;5.5;5.3;;;;;;
79466;SPS30;68933;49.726;9.226;2023-04-03T02:10:49;4.1;;4.1;3.9;;;;;;
79466;SPS30;68933;49.726;9.226;2023-04-03T02:13:02;4.1;;4.1;3.9;;;;;;
79466;SPS30;68933;49.726;9.226;2023-04-03T02:15:15;6;;5.9;5.6;;;;;;
79466;SPS30;68933;49.726;9.226;2023-04-03T02:17:28;6;;5.9;5.6;;;;;;
79466;SPS30;68933;49.726;9.226;2023-04-03T02:19:41;6.3;;6.3;6;;;;;;
79466;SPS30;68933;49.726;9.226;2023-04-03T02:21:54;6.3;;6.3;6;;;;;;
79466;SPS30;68933;49.726;9.226;2023-04-03T02:24:07;30.9;;30.1;28;;;;;;
79466;SPS30;68933;49.726;9.226;2023-04-03T02:26:20;30.9;;30.1;28;;;;;;
79466;SPS30;68933;49.726;9.226;2023-04-03T02:28:33;30.9;;30.1;28;;;;;;
79466;SPS30;68933;49.726;9.226;2023-04-03T02:30:46;13.7;;13.6;12.8;;;;;;
79466;SPS30;68933;49.726;9.226;2023-04-03T02:32:59;13.7;;13.6;12.8;;;;;;
79466;SPS30;68933;49.726;9.226;2023-04-03T02:35:12;12.6;;12.6;12;;;;;;
79466;SPS30;68933;49.726;9.226;2023-04-03T02:37:25;12.6;;12.6;12;;;;;;
79466;SPS30;68933;49.726;9.226;2023-04-03T02:39:38;6.3;;6.2;5.9;;;;;;
79466;SPS30;68933;49.726;9.226;2023-04-03T02:41:51;6.3;;6.2;5.9;;;;;;
79466;SPS30;68933;49.726;9.226;2023-04-03T02:44:04;4;;4;3.8;;;;;;
79466;SPS30;68933;49.726;9.226;2023-04-03T02:46:17;4;;4;3.8;;;;;;
79466;SPS30;68933;49.726;9.226;2023-04-03T02:48:30;4.2;;4.2;4;;;;;;
79466;SPS30;68933;49.726;9.226;2023-04-03T02:50:43;4.2;;4.2;4;;;;;;
79466;SPS30;68933;49.726;9.226;2023-04-03T02:52:56;3.8;;3.8;3.6;;;;;;
79466;SPS30;68933;49.726;9.226;2023-04-03T02:55:09;3.8;;3.8;3.6;;;;;;
79466;SPS30;68933;49.726;9.226;2023-04-03T02:57:22;3.8;;3.8;3.6;;;;;;
79466;SPS30;68933;49.726;9.226;2023-04-03T02:59:35;3.8;;3.8;3.7;;;;;;
79466;SPS30;68933;49.726;9.226;2023-04-03T03:01:48;3.8;;3.8;3.7;;;;;;
79466;SPS30;68933;49.726;9.226;2023-04-03T03:04:01;3.8;;3.8;3.6;;;;;;
79466;SPS30;68933;49.726;9.226;2023-04-03T03:06:14;3.8;;3.8;3.6;;;;;;
79466;SPS30;68933;49.726;9.226;2023-04-03T03:08:27;3.3;;3.3;3.1;;;;;;
79466;SPS30;68933;49.726;9.226;2023-04-03T03:10:40;3.3;;3.3;3.1;;;;;;
79466;SPS30;68933;49.726;9.226;2023-04-03T03:12:53;6.5;;6.5;6.2;;;;;;
79466;SPS30;68933;49.726;9.226;2023-04-03T03:15:06;6.5;;6.5;6.2;;;;;;
79466;SPS30;68933;49.726;9.226;2023-04-03T03:17:19;6.5;;6.5;6.2;;;;;;
79466;SPS30;68933;49.726;9.226;2023-04-03T03:19:32;3.9;;3.9;3.7;;;;;;
79466;SPS30;68933;49.726;9.226;2023-04-03T03:21:45;3.9;;3.9;3.7;;;;;;
79466;SPS30;68933;49.726;9.226;2023-04-03T03:23:58;3.4;;3.4;3.2;;;;;;
79466;SPS30;68933;49.726;9.226;2023-04-03T03:26:11;3.4;;3.4;3.2;;;;;;
79466;SPS30;68933;49.726;9.226;2023-04-03T03:28:24;3.4;;3.4;3.2;;;;;;
79466;SPS30;68933;49.726;9.226;2023-04-03T03:30:37;3.6;;3.6;3.4;;;;;;
79466;SPS30;68933;49.726;9.226;2023-04-03T03:32:50;3.6;;3.6;3.4;;;;;;
79466;SPS30;68933;49.726;9.226;2023-04-03T03:35:03;3.6;;3.6;3.4;;;;;;
79466;SPS30;68933;49.726;9.226;2023-04-03T03:37:16;3.6;;3.6;3.4;;;;;;
79466;SPS30;68933;49.726;9.226;2023-04-03T03:39:29;3.6;;3.6;3.4;;;;;;
79466;SPS30;68933;49.726;9.226;2023-04-03T03:41:42;4;;4;3.8;;;;;;
79466;SPS30;68933;49.726;9.226;2023-04-03T03:43:55;4;;4;3.8;;;;;;
79466;SPS30;68933;49.726;9.226;2023-04-03T03:46:08;3.7;;3.7;3.5;;;;;;
79466;SPS30;68933;49.726;9.226;2023-04-03T03:48:21;3.7;;3.7;3.5;;;;;;
79466;SPS30;68933;49.726;9.226;2023-04-03T03:50:34;3.7;;3.7;3.5;;;;;;
79466;SPS30;68933;49.726;9.226;2023-04-03T03:52:47;4.3;;4.3;4.1;;;;;;
79466;SPS30;68933;49.726;9.226;2023-04-03T03:55:00;4.3;;4.3;4.1;;;;;;
79466;SPS30;68933;49.726;9.226;2023-04-03T03:57:13;3.6;;3.6;3.4;;;;;;
79466;SPS30;68933;49.726;9.226;2023-04-03T03:59:26;3.6;;3.6;3.4;;;;;;
79466;SPS30;68933;49.726;9.226;2023-04-03T04:01:39;3.4;;3.4;3.3;;;;;;
79466;SPS30;68933;49.726;9.226;2023-04-03T04:03:52;3.4;;3.4;3.3;;;;;;
79466;SPS30;68933;49.726;9.226;2023-04-03T04:06:05;3.4;;3.4;3.3;;;;;;
79466;SPS30;68933;49.726;9.226;2023-04-03T04:08:18;4.9;;4.9;4.7;;;;;;
79466;SPS30;68933;49.726;9.226;2023-04-03T04:10:31;4.9;;4.9;4.7;;;;;;
79466;SPS30;68933;49.726;9.226;2023-04-03T04:12:44;4.6;;4.6;4.4;;;;;;
79466;SPS30;68933;49.726;9.226;2023-04-03T04:14:57;4.6;;4.6;4.4;;;;;;
79466;SPS30;68933;49.726;9.226;2023-04-03T04:17:10;4.6;;4.6;4.4;;;;;;
79466;SPS30;68933;49.726;9.226;2023-04-03T04:19:23;4.7;;4.7;4.4;;;;;;
79466;SPS30;68933;49.726;9.226;2023-04-03T04:21:36;4.7;;4.7;4.4;;;;;;
79466;SPS30;68933;49.726;9.226;2023-04-03T04:23:49;5.4;;5.4;5.2;;;;;;
79466;SPS30;68933;49.726;9.226;2023-04-03T04:26:02;5.4;;5.4;5.2;;;;;;
79466;SPS30;68933;49.726;9.226;2023-04-03T04:28:15;5.2;;5.2;4.9;;;;;;
79466;SPS30;68933;49.726;9.226;2023-04-03T04:30:28;5.2;;5.2;4.9;;;;;;
79466;SPS30;68933;49.726;9.226;2023-04-03T04:32:41;5.2;;5.2;4.9;;;;;;
79466;SPS30;68933;49.726;9.226;2023-04-03T04:34:54;5.1;;5.1;4.8;;;;;;
79466;SPS30;68933;49.726;9.226;2023-04-03T04:37:07;5.1;;5.1;4.8;;;;;;
79466;SPS30;68933;49.726;9.226;2023-04-03T04:39:20;4;;4;3.8;;;;;;
79466;SPS30;68933;49.726;9.226;2023-04-03T04:41:33;4;;4;3.8;;;;;;
79466;SPS30;68933;49.726;9.226;2023-04-03T04:43:46;4.3;;4.3;4.1;;;;;;
79466;SPS30;68933;49.726;9.226;2023-04-03T04:46:00;4.3;;4.3;4.1;;;;;;
79466;SPS30;68933;49.726;9.226;2023-04-03T04:48:12;4.3;;4.3;4.1;;;;;;
79466;SPS30;68933;49.726;9.226;2023-04-03T04:50:25;5.8;;5.8;5.5;;;;;;
79466;SPS30;68933;49.726;9.226;2023-04-03T04:52:38;5.8;;5.8;5.5;;;;;;
79466;SPS30;68933;49.726;9.226;2023-04-03T04:54:51;6.1;;6.1;5.8;;;;;;
79466;SPS30;68933;49.726;9.226;2023-04-03T04:57:04;6.1;;6.1;5.8;;;;;;
79466;SPS30;68933;49.726;9.226;2023-04-03T04:59:17;5.1;;5.1;4.9;;;;;;
79466;SPS30;68933;49.726;9.226;2023-04-03T05:01:30;5.1;;5.1;4.9;;;;;;
79466;SPS30;68933;49.726;9.226;2023-04-03T05:03:43;5.1;;5.1;4.9;;;;;;
79466;SPS30;68933;49.726;9.226;2023-04-03T05:05:56;4.5;;4.5;4.3;;;;;;
79466;SPS30;68933;49.726;9.226;2023-04-03T05:08:09;4.5;;4.5;4.3;;;;;;
79466;SPS30;68933;49.726;9.226;2023-04-03T05:10:22;6.3;;6.3;6.1;;;;;;
79466;SPS30;68933;49.726;9.226;2023-04-03T05:12:35;6.3;;6.3;6.1;;;;;;
79466;SPS30;68933;49.726;9.226;2023-04-03T05:14:48;16.2;;16.2;15.4;;;;;;
79466;SPS30;68933;49.726;9.226;2023-04-03T05:17:01;16.2;;16.2;15.4;;;;;;
79466;SPS30;68933;49.726;9.226;2023-04-03T05:19:14;30.4;;27.3;23.6;;;;;;
79466;SPS30;68933;49.726;9.226;2023-04-03T05:21:27;30.4;;27.3;23.6;;;;;;
79466;SPS30;68933;49.726;9.226;2023-04-03T05:23:40;26.3;;22.9;19.2;;;;;;
79466;SPS30;68933;49.726;9.226;2023-04-03T05:25:53;26.3;;22.9;19.2;;;;;;
79466;SPS30;68933;49.726;9.226;2023-04-03T05:28:06;26.3;;22.9;19.2;;;;;;
79466;SPS30;68933;49.726;9.226;2023-04-03T05:30:19;19.1;;17.4;15.3;;;;;;
79466;SPS30;68933;49.726;9.226;2023-04-03T05:32:32;19.1;;17.4;15.3;;;;;;
79466;SPS30;68933;49.726;9.226;2023-04-03T05:34:45;15.5;;14.2;12.5;;;;;;
79466;SPS30;68933;49.726;9.226;2023-04-03T05:36:58;15.5;;14.2;12.5;;;;;;
79466;SPS30;68933;49.726;9.226;2023-04-03T05:39:11;12.2;;11.7;10.9;;;;;;
79466;SPS30;68933;49.726;9.226;2023-04-03T05:41:24;12.2;;11.7;10.9;;;;;;
79466;SPS30;68933;49.726;9.226;2023-04-03T05:43:37;10.4;;10.1;9.4;;;;;;
79466;SPS30;68933;49.726;9.226;2023-04-03T05:45:50;10.4;;10.1;9.4;;;;;;
79466;SPS30;68933;49.726;9.226;2023-04-03T05:48:03;10.4;;10.1;9.4;;;;;;
79466;SPS30;68933;49.726;9.226;2023-04-03T05:50:16;8.5;;8.4;8;;;;;;
79466;SPS30;68933;49.726;9.226;2023-04-03T05:52:29;8.5;;8.4;8;;;;;;
79466;SPS30;68933;49.726;9.226;2023-04-03T05:54:42;8.4;;8.3;7.9;;;;;;
79466;SPS30;68933;49.726;9.226;2023-04-03T05:56:55;8.4;;8.3;7.9;;;;;;
79466;SPS30;68933;49.726;9.226;2023-04-03T05:59:08;7.4;;7.4;7.1;;;;;;
79466;SPS30;68933;49.726;9.226;2023-04-03T06:01:21;7.4;;7.4;7.1;;;;;;
79466;SPS30;68933;49.726;9.226;2023-04-03T06:03:34;8.5;;8.5;8.1;;;;;;
79466;SPS30;68933;49.726;9.226;2023-04-03T06:05:47;8.5;;8.5;8.1;;;;;;
79466;SPS30;68933;49.726;9.226;2023-04-03T06:08:00;9;;9;8.6;;;;;;
79466;SPS30;68933;49.726;9.226;2023-04-03T06:10:13;9;;9;8.6;;;;;;
79466;SPS30;68933;49.726;9.226;2023-04-03T06:12:26;9;;9;8.6;;;;;;
79466;SPS30;68933;49.726;9.226;2023-04-03T06:14:39;8.9;;8.9;8.5;;;;;;
79466;SPS30;68933;49.726;9.226;2023-04-03T06:16:52;8.9;;8.9;8.5;;;;;;
79466;SPS30;68933;49.726;9.226;2023-04-03T06:19:05;11.2;;11.2;10.6;;;;;;
79466;SPS30;68933;49.726;9.226;2023-04-03T06:21:18;11.2;;11.2;10.6;;;;;;
79466;SPS30;68933;49.726;9.226;2023-04-03T06:23:31;11.6;;11.6;11;;;;;;
79466;SPS30;68933;49.726;9.226;2023-04-03T06:25:44;11.6;;11.6;11;;;;;;
79466;SPS30;68933;49.726;9.226;2023-04-03T06:27:57;11.1;;11;10.5;;;;;;
79466;SPS30;68933;49.726;9.226;2023-04-03T06:30:10;11.1;;11;10.5;;;;;;
79466;SPS30;68933;49.726;9.226;2023-04-03T06:32:23;11.1;;11;10.5;;;;;;
79466;SPS30;68933;49.726;9.226;2023-04-03T06:34:36;13.2;;13.2;12.6;;;;;;
79466;SPS30;68933;49.726;9.226;2023-04-03T06:36:49;13.2;;13.2;12.6;;;;;;
79466;SPS30;68933;49.726;9.226;2023-04-03T06:39:02;13.9;;13.9;13.3;;;;;;
79466;SPS30;68933;49.726;9.226;2023-04-03T06:41:15;13.9;;13.9;13.3;;;;;;
79466;SPS30;68933;49.726;9.226;2023-04-03T06:43:28;13.2;;13.2;12.6;;;;;;
79466;SPS30;68933;49.726;9.226;2023-04-03T06:45:41;13.2;;13.2;12.6;;;;;;
79466;SPS30;68933;49.726;9.226;2023-04-03T06:47:54;13.2;;13.2;12.6;;;;;;
79466;SPS30;68933;49.726;9.226;2023-04-03T06:50:07;12.1;;12.1;11.5;;;;;;
79466;SPS30;68933;49.726;9.226;2023-04-03T06:52:20;12.1;;12.1;11.5;;;;;;
79466;SPS30;68933;49.726;9.226;2023-04-03T06:54:33;7.3;;7.3;7;;;;;;
79466;SPS30;68933;49.726;9.226;2023-04-03T06:56:46;7.3;;7.3;7;;;;;;
79466;SPS30;68933;49.726;9.226;2023-04-03T06:58:59;7.3;;7.3;7;;;;;;
79466;SPS30;68933;49.726;9.226;2023-04-03T07:01:14;6.7;;6.7;6.3;;;;;;
79466;SPS30;68933;49.726;9.226;2023-04-03T07:03:25;6.7;;6.7;6.3;;;;;;
79466;SPS30;68933;49.726;9.226;2023-04-03T07:05:38;6.3;;6.3;6;;;;;;
79466;SPS30;68933;49.726;9.226;2023-04-03T07:07:51;6.3;;6.3;6;;;;;;
79466;SPS30;68933;49.726;9.226;2023-04-03T07:10:04;4.9;;4.9;4.7;;;;;;
79466;SPS30;68933;49.726;9.226;2023-04-03T07:12:17;4.9;;4.9;4.7;;;;;;
79466;SPS30;68933;49.726;9.226;2023-04-03T07:14:30;4.9;;4.9;4.7;;;;;;
79466;SPS30;68933;49.726;9.226;2023-04-03T07:16:43;3.8;;3.8;3.6;;;;;;
79466;SPS30;68933;49.726;9.226;2023-04-03T07:18:56;3.8;;3.8;3.6;;;;;;
79466;SPS30;68933;49.726;9.226;2023-04-03T07:21:09;3.5;;3.5;3.3;;;;;;
79466;SPS30;68933;49.726;9.226;2023-04-03T07:23:22;3.5;;3.5;3.3;;;;;;
79466;SPS30;68933;49.726;9.226;2023-04-03T07:25:35;3.5;;3.5;3.3;;;;;;
79466;SPS30;68933;49.726;9.226;2023-04-03T07:27:48;3;;3;2.8;;;;;;
79466;SPS30;68933;49.726;9.226;2023-04-03T07:30:01;3;;3;2.8;;;;;;
79466;SPS30;68933;49.726;9.226;2023-04-03T07:32:14;2.8;;2.8;2.6;;;;;;
79466;SPS30;68933;49.726;9.226;2023-04-03T07:34:27;2.8;;2.8;2.6;;;;;;
79466;SPS30;68933;49.726;9.226;2023-04-03T07:36:40;3.1;;3.1;3;;;;;;
79466;SPS30;68933;49.726;9.226;2023-04-03T07:38:53;3.1;;3.1;3;;;;;;
79466;SPS30;68933;49.726;9.226;2023-04-03T07:41:06;3.1;;3.1;3;;;;;;
79466;SPS30;68933;49.726;9.226;2023-04-03T07:43:19;3.6;;3.6;3.4;;;;;;
79466;SPS30;68933;49.726;9.226;2023-04-03T07:45:32;3.6;;3.6;3.4;;;;;;
79466;SPS30;68933;49.726;9.226;2023-04-03T07:47:45;3.1;;3.1;3;;;;;;
79466;SPS30;68933;49.726;9.226;2023-04-03T07:49:58;3.1;;3.1;3;;;;;;
79466;SPS30;68933;49.726;9.226;2023-04-03T07:52:11;3.2;;3.2;3.1;;;;;;
79466;SPS30;68933;49.726;9.226;2023-04-03T07:54:24;3.2;;3.2;3.1;;;;;;
79466;SPS30;68933;49.726;9.226;2023-04-03T07:56:37;2.3;;2.3;2.2;;;;;;
79466;SPS30;68933;49.726;9.226;2023-04-03T07:58:50;2.3;;2.3;2.2;;;;;;
79466;SPS30;68933;49.726;9.226;2023-04-03T08:01:03;2.3;;2.3;2.2;;;;;;
79466;SPS30;68933;49.726;9.226;2023-04-03T08:03:16;3;;3;2.9;;;;;;
79466;SPS30;68933;49.726;9.226;2023-04-03T08:05:29;3;;3;2.9;;;;;;
79466;SPS30;68933;49.726;9.226;2023-04-03T08:07:42;2.5;;2.5;2.4;;;;;;
79466;SPS30;68933;49.726;9.226;2023-04-03T08:09:55;2.5;;2.5;2.4;;;;;;
79466;SPS30;68933;49.726;9.226;2023-04-03T08:12:08;3.5;;3.5;3.3;;;;;;
79466;SPS30;68933;49.726;9.226;2023-04-03T08:14:21;3.5;;3.5;3.3;;;;;;
79466;SPS30;68933;49.726;9.226;2023-04-03T08:16:34;2.8;;2.8;2.7;;;;;;
79466;SPS30;68933;49.726;9.226;2023-04-03T08:18:47;2.8;;2.8;2.7;;;;;;
79466;SPS30;68933;49.726;9.226;2023-04-03T08:21:00;2.8;;2.8;2.7;;;;;;
79466;SPS30;68933;49.726;9.226;2023-04-03T08:23:13;3.4;;3.4;3.2;;;;;;
79466;SPS30;68933;49.726;9.226;2023-04-03T08:25:26;3.4;;3.4;3.2;;;;;;
79466;SPS30;68933;49.726;9.226;2023-04-03T08:27:39;2.5;;2.5;2.4;;;;;;
79466;SPS30;68933;49.726;9.226;2023-04-03T08:29:52;2.5;;2.5;2.4;;;;;;
79466;SPS30;68933;49.726;9.226;2023-04-03T08:32:05;2.4;;2.4;2.3;;;;;;
79466;SPS30;68933;49.726;9.226;2023-04-03T08:34:18;2.4;;2.4;2.3;;;;;;
79466;SPS30;68933;49.726;9.226;2023-04-03T08:36:31;2.4;;2.4;2.3;;;;;;
79466;SPS30;68933;49.726;9.226;2023-04-03T08:38:44;2.5;;2.5;2.4;;;;;;
79466;SPS30;68933;49.726;9.226;2023-04-03T08:41:02;2.5;;2.5;2.4;;;;;;
79466;SPS30;68933;49.726;9.226;2023-04-03T08:43:16;2.4;;2.4;2.3;;;;;;
79466;SPS30;68933;49.726;9.226;2023-04-03T08:45:25;2.4;;2.4;2.3;;;;;;
79466;SPS30;68933;49.726;9.226;2023-04-03T08:47:38;3.1;;3.1;3;;;;;;
79466;SPS30;68933;49.726;9.226;2023-04-03T08:49:49;3.1;;3.1;3;;;;;;
79466;SPS30;68933;49.726;9.226;2023-04-03T08:52:02;2.6;;2.6;2.4;;;;;;
79466;SPS30;68933;49.726;9.226;2023-04-03T08:54:17;2.6;;2.6;2.4;;;;;;
79466;SPS30;68933;49.726;9.226;2023-04-03T08:56:28;3.8;;3.8;3.6;;;;;;
79466;SPS30;68933;49.726;9.226;2023-04-03T08:58:41;3.8;;3.8;3.6;;;;;;
79466;SPS30;68933;49.726;9.226;2023-04-03T09:00:55;3.1;;3.1;3;;;;;;
79466;SPS30;68933;49.726;9.226;2023-04-03T09:03:10;3.1;;3.1;3;;;;;;
79466;SPS30;68933;49.726;9.226;2023-04-03T09:05:20;3.1;;3.1;3;;;;;;
79466;SPS30;68933;49.726;9.226;2023-04-03T09:07:33;2.1;;2.1;2;;;;;;
79466;SPS30;68933;49.726;9.226;2023-04-03T09:09:46;2.1;;2.1;2;;;;;;
79466;SPS30;68933;49.726;9.226;2023-04-03T09:12:00;2.6;;2.6;2.5;;;;;;
79466;SPS30;68933;49.726;9.226;2023-04-03T09:14:13;2.6;;2.6;2.5;;;;;;
79466;SPS30;68933;49.726;9.226;2023-04-03T09:16:27;2.5;;2.5;2.4;;;;;;
79466;SPS30;68933;49.726;9.226;2023-04-03T09:18:39;2.5;;2.5;2.4;;;;;;
79466;SPS30;68933;49.726;9.226;2023-04-03T09:20:54;2.6;;2.6;2.5;;;;;;
79466;SPS30;68933;49.726;9.226;2023-04-03T09:23:04;2.6;;2.6;2.5;;;;;;
79466;SPS30;68933;49.726;9.226;2023-04-03T09:25:18;2.6;;2.6;2.5;;;;;;
79466;SPS30;68933;49.726;9.226;2023-04-03T09:27:30;2.5;;2.5;2.4;;;;;;
79466;SPS30;68933;49.726;9.226;2023-04-03T09:29:43;2.5;;2.5;2.4;;;;;;
79466;SPS30;68933;49.726;9.226;2023-04-03T09:31:56;2.8;;2.8;2.7;;;;;;
79466;SPS30;68933;49.726;9.226;2023-04-03T09:34:10;2.8;;2.8;2.7;;;;;;
79466;SPS30;68933;49.726;9.226;2023-04-03T09:36:38;2.8;;2.8;2.7;;;;;;
79466;SPS30;68933;49.726;9.226;2023-04-03T09:38:35;2.7;;2.7;2.6;;;;;;
79466;SPS30;68933;49.726;9.226;2023-04-03T09:40:49;2.7;;2.7;2.6;;;;;;
79466;SPS30;68933;49.726;9.226;2023-04-03T09:43:01;2.8;;2.8;2.7;;;;;;
79466;SPS30;68933;49.726;9.226;2023-04-03T09:45:21;2.8;;2.8;2.7;;;;;;
79466;SPS30;68933;49.726;9.226;2023-04-03T09:47:27;2.8;;2.8;2.7;;;;;;
79466;SPS30;68933;49.726;9.226;2023-04-03T09:49:40;2.5;;2.5;2.4;;;;;;
79466;SPS30;68933;49.726;9.226;2023-04-03T09:51:53;2.5;;2.5;2.4;;;;;;
79466;SPS30;68933;49.726;9.226;2023-04-03T09:54:23;2.6;;2.6;2.5;;;;;;
79466;SPS30;68933;49.726;9.226;2023-04-03T09:56:19;2.6;;2.6;2.5;;;;;;
79466;SPS30;68933;49.726;9.226;2023-04-03T09:58:32;2.9;;2.9;2.8;;;;;;
79466;SPS30;68933;49.726;9.226;2023-04-03T10:00:45;2.9;;2.9;2.8;;;;;;
79466;SPS30;68933;49.726;9.226;2023-04-03T10:02:58;2.9;;2.9;2.8;;;;;;
79466;SPS30;68933;49.726;9.226;2023-04-03T10:05:25;2.7;;2.7;2.6;;;;;;
79466;SPS30;68933;49.726;9.226;2023-04-03T10:07:28;2.7;;2.7;2.6;;;;;;
79466;SPS30;68933;49.726;9.226;2023-04-03T10:09:37;3.1;;3.1;2.9;;;;;;
79466;SPS30;68933;49.726;9.226;2023-04-03T10:11:56;3.1;;3.1;2.9;;;;;;
79466;SPS30;68933;49.726;9.226;2023-04-03T10:14:03;3.2;;3.2;3;;;;;;
79466;SPS30;68933;49.726;9.226;2023-04-03T10:16:16;3.2;;3.2;3;;;;;;
79466;SPS30;68933;49.726;9.226;2023-04-03T10:18:30;3.2;;3.2;3;;;;;;
79466;SPS30;68933;49.726;9.226;2023-04-03T10:20:43;3.2;;3.2;3;;;;;;
79466;SPS30;68933;49.726;9.226;2023-04-03T10:22:56;3.2;;3.2;3;;;;;;
79466;SPS30;68933;49.726;9.226;2023-04-03T10:25:10;3.1;;3.1;3;;;;;;
79466;SPS30;68933;49.726;9.226;2023-04-03T10:27:23;3.1;;3.1;3;;;;;;
79466;SPS30;68933;49.726;9.226;2023-04-03T10:29:36;3.1;;3.1;3;;;;;;
79466;SPS30;68933;49.726;9.226;2023-04-03T10:31:49;3.3;;3.3;3.1;;;;;;
79466;SPS30;68933;49.726;9.226;2023-04-03T10:34:01;3.3;;3.3;3.1;;;;;;
79466;SPS30;68933;49.726;9.226;2023-04-03T10:36:17;3.6;;3.6;3.5;;;;;;
79466;SPS30;68933;49.726;9.226;2023-04-03T10:38:29;3.6;;3.6;3.5;;;;;;
79466;SPS30;68933;49.726;9.226;2023-04-03T10:40:39;3.2;;3.2;3.1;;;;;;
79466;SPS30;68933;49.726;9.226;2023-04-03T10:42:53;3.2;;3.2;3.1;;;;;;
79466;SPS30;68933;49.726;9.226;2023-04-03T10:45:08;3.2;;3.2;3.1;;;;;;
79466;SPS30;68933;49.726;9.226;2023-04-03T10:47:18;2.9;;2.9;2.8;;;;;;
79466;SPS30;68933;49.726;9.226;2023-04-03T10:49:34;2.9;;2.9;2.8;;;;;;
79466;SPS30;68933;49.726;9.226;2023-04-03T10:51:45;3.3;;3.3;3.2;;;;;;
79466;SPS30;68933;49.726;9.226;2023-04-03T10:53:58;3.3;;3.3;3.2;;;;;;
79466;SPS30;68933;49.726;9.226;2023-04-03T10:56:11;3.1;;3.1;3;;;;;;
79466;SPS30;68933;49.726;9.226;2023-04-03T10:58:24;3.1;;3.1;3;;;;;;
79466;SPS30;68933;49.726;9.226;2023-04-03T11:00:37;3.7;;3.7;3.5;;;;;;
79466;SPS30;68933;49.726;9.226;2023-04-03T11:02:49;3.7;;3.7;3.5;;;;;;
79466;SPS30;68933;49.726;9.226;2023-04-03T11:05:03;3.7;;3.7;3.5;;;;;;
79466;SPS30;68933;49.726;9.226;2023-04-03T11:07:15;3.7;;3.7;3.5;;;;;;
79466;SPS30;68933;49.726;9.226;2023-04-03T11:09:28;3.7;;3.7;3.5;;;;;;
79466;SPS30;68933;49.726;9.226;2023-04-03T11:11:41;3.6;;3.6;3.4;;;;;;
79466;SPS30;68933;49.726;9.226;2023-04-03T11:13:55;3.6;;3.6;3.4;;;;;;
79466;SPS30;68933;49.726;9.226;2023-04-03T11:16:07;7.4;;7.4;7;;;;;;
79466;SPS30;68933;49.726;9.226;2023-04-03T11:18:21;7.4;;7.4;7;;;;;;
79466;SPS30;68933;49.726;9.226;2023-04-03T11:20:33;3.9;;3.9;3.7;;;;;;
79466;SPS30;68933;49.726;9.226;2023-04-03T11:22:47;3.9;;3.9;3.7;;;;;;
79466;SPS30;68933;49.726;9.226;2023-04-03T11:25:02;3.9;;3.9;3.7;;;;;;
79466;SPS30;68933;49.726;9.226;2023-04-03T11:27:15;3;;3;2.9;;;;;;
79466;SPS30;68933;49.726;9.226;2023-04-03T11:29:26;3;;3;2.9;;;;;;
79466;SPS30;68933;49.726;9.226;2023-04-03T11:31:42;3.1;;3.1;3;;;;;;
79466;SPS30;68933;49.726;9.226;2023-04-03T11:34:05;3.1;;3.1;3;;;;;;
79466;SPS30;68933;49.726;9.226;2023-04-03T11:36:05;4.2;;4.2;4;;;;;;
79466;SPS30;68933;49.726;9.226;2023-04-03T11:38:18;4.2;;4.2;4;;;;;;
79466;SPS30;68933;49.726;9.226;2023-04-03T11:40:30;3.6;;3.6;3.5;;;;;;
79466;SPS30;68933;49.726;9.226;2023-04-03T11:42:45;3.6;;3.6;3.5;;;;;;
79466;SPS30;68933;49.726;9.226;2023-04-03T11:45:15;3.6;;3.6;3.5;;;;;;
79466;SPS30;68933;49.726;9.226;2023-04-03T11:47:09;3.2;;3.2;3.1;;;;;;
79466;SPS30;68933;49.726;9.226;2023-04-03T11:49:55;3.2;;3.2;3.1;;;;;;
79466;SPS30;68933;49.726;9.226;2023-04-03T11:50:02;3.2;;3.2;3.1;;;;;;
79466;SPS30;68933;49.726;9.226;2023-04-03T11:52:17;2.7;;2.7;2.6;;;;;;
79466;SPS30;68933;49.726;9.226;2023-04-03T11:54:36;2.7;;2.7;2.6;;;;;;
79466;SPS30;68933;49.726;9.226;2023-04-03T11:56:41;2.9;;2.9;2.8;;;;;;
79466;SPS30;68933;49.726;9.226;2023-04-03T11:59:25;2.9;;2.9;2.8;;;;;;
79466;SPS30;68933;49.726;9.226;2023-04-03T12:01:07;3.6;;3.6;3.4;;;;;;
79466;SPS30;68933;49.726;9.226;2023-04-03T12:05:33;2.9;;2.9;2.7;;;;;;
79466;SPS30;68933;49.726;9.226;2023-04-03T12:07:52;2.9;;2.9;2.7;;;;;;
79466;SPS30;68933;49.726;9.226;2023-04-03T12:09:59;2.9;;2.9;2.7;;;;;;
79466;SPS30;68933;49.726;9.226;2023-04-03T12:12:21;3.7;;3.7;3.5;;;;;;
79466;SPS30;68933;49.726;9.226;2023-04-03T12:14:25;3.7;;3.7;3.5;;;;;;
79466;SPS30;68933;49.726;9.226;2023-04-03T12:16:41;3;;3;2.9;;;;;;
79466;SPS30;68933;49.726;9.226;2023-04-03T12:18:59;3;;3;2.9;;;;;;
79466;SPS30;68933;49.726;9.226;2023-04-03T12:21:04;3;;3;2.9;;;;;;
79466;SPS30;68933;49.726;9.226;2023-04-03T12:23:32;3;;3;2.9;;;;;;
79466;SPS30;68933;49.726;9.226;2023-04-03T12:25:47;3;;3;2.9;;;;;;
79466;SPS30;68933;49.726;9.226;2023-04-03T12:27:43;3.6;;3.6;3.4;;;;;;
79466;SPS30;68933;49.726;9.226;2023-04-03T12:29:58;3.6;;3.6;3.4;;;;;;
79466;SPS30;68933;49.726;9.226;2023-04-03T12:32:11;3.4;;3.4;3.2;;;;;;
79466;SPS30;68933;49.726;9.226;2023-04-03T12:34:29;3.4;;3.4;3.2;;;;;;
79466;SPS30;68933;49.726;9.226;2023-04-03T12:36:38;3.4;;3.4;3.2;;;;;;
79466;SPS30;68933;49.726;9.226;2023-04-03T12:38:52;3;;3;2.8;;;;;;